sensor_id;sensor_type;location;lat;lon;timestamp;pressure;altitude;pressure_sealevel;temperature;humidity
32251;BME280;41295;48.518;9.206;2023-09-08T00:01:21;97449.53;;;19.70;61.80
32251;BME280;41295;48.518;9.206;2023-09-08T00:03:24;97453.22;;;19.68;62.08
32251;BME280;41295;48.518;9.206;2023-09-08T00:05:27;97452.38;;;19.67;62.02
32251;BME280;41295;48.518;9.206;2023-09-08T00:07:30;97448.16;;;19.65;62.19
32251;BME280;41295;48.518;9.206;2023-09-08T00:09:33;97450.81;;;19.65;62.08
32251;BME280;41295;48.518;9.206;2023-09-08T00:11:37;97459.69;;;19.64;62.17
32251;BME280;41295;48.518;9.206;2023-09-08T00:13:40;97447.53;;;19.61;62.43
32251;BME280;41295;48.518;9.206;2023-09-08T00:15:43;97464.16;;;19.63;62.29
32251;BME280;41295;48.518;9.206;2023-09-08T00:17:45;97451.84;;;19.62;62.46
32251;BME280;41295;48.518;9.206;2023-09-08T00:19:49;97452.09;;;19.59;62.23
32251;BME280;41295;48.518;9.206;2023-09-08T00:21:52;97453.06;;;19.58;62.36
32251;BME280;41295;48.518;9.206;2023-09-08T00:23:55;97445.13;;;19.58;62.59
32251;BME280;41295;48.518;9.206;2023-09-08T00:26:02;97442.59;;;19.56;61.84
32251;BME280;41295;48.518;9.206;2023-09-08T00:28:07;97449.16;;;19.51;62.17
32251;BME280;41295;48.518;9.206;2023-09-08T00:30:10;97448.41;;;19.49;62.51
32251;BME280;41295;48.518;9.206;2023-09-08T00:32:14;97451.06;;;19.49;62.24
32251;BME280;41295;48.518;9.206;2023-09-08T00:34:17;97435.44;;;19.45;62.02
32251;BME280;41295;48.518;9.206;2023-09-08T00:36:20;97440.19;;;19.40;62.34
32251;BME280;41295;48.518;9.206;2023-09-08T00:38:21;97441.13;;;19.39;62.30
32251;BME280;41295;48.518;9.206;2023-09-08T00:40:26;97440.41;;;19.37;62.42
32251;BME280;41295;48.518;9.206;2023-09-08T00:42:29;97441.59;;;19.33;62.70
32251;BME280;41295;48.518;9.206;2023-09-08T00:44:34;97437.22;;;19.32;62.76
32251;BME280;41295;48.518;9.206;2023-09-08T00:46:37;97444.66;;;19.27;62.74
32251;BME280;41295;48.518;9.206;2023-09-08T00:48:41;97441.28;;;19.25;62.57
32251;BME280;41295;48.518;9.206;2023-09-08T00:50:44;97442.47;;;19.20;62.87
32251;BME280;41295;48.518;9.206;2023-09-08T00:52:47;97441.59;;;19.20;62.77
32251;BME280;41295;48.518;9.206;2023-09-08T00:54:51;97442.56;;;19.19;62.70
32251;BME280;41295;48.518;9.206;2023-09-08T00:56:55;97438.31;;;19.16;62.76
32251;BME280;41295;48.518;9.206;2023-09-08T00:58:59;97438.75;;;19.10;63.04
32251;BME280;41295;48.518;9.206;2023-09-08T01:01:03;97441.56;;;19.07;62.92
32251;BME280;41295;48.518;9.206;2023-09-08T01:03:07;97443.81;;;19.00;63.58
32251;BME280;41295;48.518;9.206;2023-09-08T01:05:10;97443.81;;;19.00;63.63
32251;BME280;41295;48.518;9.206;2023-09-08T01:07:15;97437.69;;;18.99;63.95
32251;BME280;41295;48.518;9.206;2023-09-08T01:09:18;97437.69;;;18.99;63.96
32251;BME280;41295;48.518;9.206;2023-09-08T01:11:21;97443.94;;;18.98;63.77
32251;BME280;41295;48.518;9.206;2023-09-08T01:13:25;97445.81;;;18.96;63.65
32251;BME280;41295;48.518;9.206;2023-09-08T01:15:28;97444.88;;;18.97;63.71
32251;BME280;41295;48.518;9.206;2023-09-08T01:17:31;97441.28;;;18.98;63.43
32251;BME280;41295;48.518;9.206;2023-09-08T01:19:38;97437.16;;;18.94;63.25
32251;BME280;41295;48.518;9.206;2023-09-08T01:27:07;97443.41;;;18.93;63.11
32251;BME280;41295;48.518;9.206;2023-09-08T01:29:13;97447.84;;;18.93;63.25
32251;BME280;41295;48.518;9.206;2023-09-08T01:31:19;97447.94;;;18.91;63.41
32251;BME280;41295;48.518;9.206;2023-09-08T01:33:22;97441.16;;;18.87;63.55
32251;BME280;41295;48.518;9.206;2023-09-08T01:35:25;97447.41;;;18.86;63.85
32251;BME280;41295;48.518;9.206;2023-09-08T01:37:27;97436.09;;;18.84;63.37
32251;BME280;41295;48.518;9.206;2023-09-08T01:39:29;97437.25;;;18.80;63.46
32251;BME280;41295;48.518;9.206;2023-09-08T01:41:32;97437.47;;;18.77;63.84
32251;BME280;41295;48.518;9.206;2023-09-08T01:43:37;97432.19;;;18.77;63.80
32251;BME280;41295;48.518;9.206;2023-09-08T01:45:39;97430.53;;;18.75;63.90
32251;BME280;41295;48.518;9.206;2023-09-08T01:47:42;97432.31;;;18.75;64.05
32251;BME280;41295;48.518;9.206;2023-09-08T01:49:45;97438.66;;;18.72;64.04
32251;BME280;41295;48.518;9.206;2023-09-08T01:51:48;97429.03;;;18.71;63.95
32251;BME280;41295;48.518;9.206;2023-09-08T01:53:50;97433.44;;;18.71;63.72
32251;BME280;41295;48.518;9.206;2023-09-08T01:55:53;97430.09;;;18.69;63.73
32251;BME280;41295;48.518;9.206;2023-09-08T01:57:55;97433.25;;;18.61;64.38
32251;BME280;41295;48.518;9.206;2023-09-08T01:59:59;97430.63;;;18.61;64.66
32251;BME280;41295;48.518;9.206;2023-09-08T02:02:03;97434.28;;;18.58;64.62
32251;BME280;41295;48.518;9.206;2023-09-08T02:04:06;97440.44;;;18.59;64.77
32251;BME280;41295;48.518;9.206;2023-09-08T02:06:09;97437.03;;;18.57;64.88
32251;BME280;41295;48.518;9.206;2023-09-08T02:08:12;97437.16;;;18.55;64.56
32251;BME280;41295;48.518;9.206;2023-09-08T02:10:16;97432.72;;;18.56;64.56
32251;BME280;41295;48.518;9.206;2023-09-08T02:12:20;97436.13;;;18.58;64.74
32251;BME280;41295;48.518;9.206;2023-09-08T02:14:22;97427.34;;;18.57;64.60
32251;BME280;41295;48.518;9.206;2023-09-08T02:16:27;97431.88;;;18.55;64.26
32251;BME280;41295;48.518;9.206;2023-09-08T02:18:30;97431.97;;;18.54;64.34
32251;BME280;41295;48.518;9.206;2023-09-08T02:20:33;97431.13;;;18.53;64.10
32251;BME280;41295;48.518;9.206;2023-09-08T02:22:39;97429.56;;;18.50;63.97
32251;BME280;41295;48.518;9.206;2023-09-08T02:24:41;97429.78;;;18.47;63.90
32251;BME280;41295;48.518;9.206;2023-09-08T02:26:44;97428.28;;;18.43;64.17
32251;BME280;41295;48.518;9.206;2023-09-08T02:28:46;97426.69;;;18.41;64.34
32251;BME280;41295;48.518;9.206;2023-09-08T02:30:48;97427.84;;;18.36;63.96
32251;BME280;41295;48.518;9.206;2023-09-08T02:32:52;97430.03;;;18.30;64.39
32251;BME280;41295;48.518;9.206;2023-09-08T02:34:57;97432.06;;;18.26;64.72
32251;BME280;41295;48.518;9.206;2023-09-08T02:37:00;97427.72;;;18.25;64.64
32251;BME280;41295;48.518;9.206;2023-09-08T02:39:03;97432.25;;;18.23;64.71
32251;BME280;41295;48.518;9.206;2023-09-08T02:41:08;97429.59;;;18.23;64.56
32251;BME280;41295;48.518;9.206;2023-09-08T02:43:10;97426.97;;;18.23;64.57
32251;BME280;41295;48.518;9.206;2023-09-08T02:45:13;97433.19;;;18.22;64.57
32251;BME280;41295;48.518;9.206;2023-09-08T02:47:16;97429.72;;;18.21;64.35
32251;BME280;41295;48.518;9.206;2023-09-08T02:49:20;97431.41;;;18.22;64.41
32251;BME280;41295;48.518;9.206;2023-09-08T02:51:23;97426.97;;;18.23;64.16
32251;BME280;41295;48.518;9.206;2023-09-08T02:53:25;97429.81;;;18.20;64.50
32251;BME280;41295;48.518;9.206;2023-09-08T02:55:30;97437.84;;;18.18;64.61
32251;BME280;41295;48.518;9.206;2023-09-08T02:57:31;97434.34;;;18.18;64.79
32251;BME280;41295;48.518;9.206;2023-09-08T02:59:34;97432.56;;;18.18;64.99
32251;BME280;41295;48.518;9.206;2023-09-08T03:01:37;97439.53;;;18.19;65.12
32251;BME280;41295;48.518;9.206;2023-09-08T03:03:40;97435.19;;;18.18;65.67
32251;BME280;41295;48.518;9.206;2023-09-08T03:05:43;97430.78;;;18.19;65.84
32251;BME280;41295;48.518;9.206;2023-09-08T03:07:47;97438.06;;;18.15;66.24
32251;BME280;41295;48.518;9.206;2023-09-08T03:09:50;97431.25;;;18.11;66.22
32251;BME280;41295;48.518;9.206;2023-09-08T03:11:53;97436.72;;;18.08;66.48
32251;BME280;41295;48.518;9.206;2023-09-08T03:13:56;97431.63;;;18.04;66.83
32251;BME280;41295;48.518;9.206;2023-09-08T03:16:02;97432.59;;;18.03;66.50
32251;BME280;41295;48.518;9.206;2023-09-08T03:18:04;97423.72;;;18.04;66.48
32251;BME280;41295;48.518;9.206;2023-09-08T03:20:12;97436.91;;;18.04;66.40
32251;BME280;41295;48.518;9.206;2023-09-08T03:22:27;97432.81;;;18.00;66.76
32251;BME280;41295;48.518;9.206;2023-09-08T03:24:30;97427.53;;;18.00;66.78
32251;BME280;41295;48.518;9.206;2023-09-08T03:26:35;97424.88;;;18.00;66.76
32251;BME280;41295;48.518;9.206;2023-09-08T03:28:38;97433.56;;;18.02;66.81
32251;BME280;41295;48.518;9.206;2023-09-08T03:30:41;97424.69;;;18.03;66.96
32251;BME280;41295;48.518;9.206;2023-09-08T03:32:44;97425.53;;;18.04;66.88
32251;BME280;41295;48.518;9.206;2023-09-08T03:34:47;97419.59;;;18.00;67.11
32251;BME280;41295;48.518;9.206;2023-09-08T03:36:49;97423.81;;;18.03;67.00
32251;BME280;41295;48.518;9.206;2023-09-08T03:38:53;97416.22;;;17.98;66.94
32251;BME280;41295;48.518;9.206;2023-09-08T03:40:56;97410.31;;;17.95;66.93
32251;BME280;41295;48.518;9.206;2023-09-08T03:42:59;97414.63;;;17.96;66.84
32251;BME280;41295;48.518;9.206;2023-09-08T03:45:02;97418.97;;;17.97;66.91
32251;BME280;41295;48.518;9.206;2023-09-08T03:47:04;97420.22;;;17.91;67.00
32251;BME280;41295;48.518;9.206;2023-09-08T03:49:08;97409.66;;;17.91;67.00
32251;BME280;41295;48.518;9.206;2023-09-08T03:51:10;97417.56;;;17.91;66.76
32251;BME280;41295;48.518;9.206;2023-09-08T03:53:13;97420.41;;;17.88;66.81
32251;BME280;41295;48.518;9.206;2023-09-08T03:55:17;97423.16;;;17.86;66.61
32251;BME280;41295;48.518;9.206;2023-09-08T03:57:20;97421.34;;;17.87;66.68
32251;BME280;41295;48.518;9.206;2023-09-08T03:59:23;97422.31;;;17.86;66.54
32251;BME280;41295;48.518;9.206;2023-09-08T04:01:24;97427.69;;;17.84;66.05
32251;BME280;41295;48.518;9.206;2023-09-08T04:03:27;97421.56;;;17.84;65.73
32251;BME280;41295;48.518;9.206;2023-09-08T04:05:31;97419.88;;;17.83;65.75
32251;BME280;41295;48.518;9.206;2023-09-08T04:07:33;97427.13;;;17.79;65.80
32251;BME280;41295;48.518;9.206;2023-09-08T04:09:36;97426.28;;;17.78;65.99
32251;BME280;41295;48.518;9.206;2023-09-08T04:11:40;97425.44;;;17.78;66.02
32251;BME280;41295;48.518;9.206;2023-09-08T04:13:43;97437.69;;;17.79;66.21
32251;BME280;41295;48.518;9.206;2023-09-08T04:15:47;97427.25;;;17.77;65.94
32251;BME280;41295;48.518;9.206;2023-09-08T04:17:50;97436.84;;;17.78;66.04
32251;BME280;41295;48.518;9.206;2023-09-08T04:19:52;97429.13;;;17.75;66.12
32251;BME280;41295;48.518;9.206;2023-09-08T04:21:55;97431.88;;;17.74;66.07
32251;BME280;41295;48.518;9.206;2023-09-08T04:23:58;97437.25;;;17.72;66.03
32251;BME280;41295;48.518;9.206;2023-09-08T04:26:01;97439.13;;;17.70;66.02
32251;BME280;41295;48.518;9.206;2023-09-08T04:28:04;97440.16;;;17.67;66.13
32251;BME280;41295;48.518;9.206;2023-09-08T04:30:08;97437.63;;;17.66;65.94
32251;BME280;41295;48.518;9.206;2023-09-08T04:32:11;97445.63;;;17.64;65.63
32251;BME280;41295;48.518;9.206;2023-09-08T04:34:13;97438.69;;;17.63;65.23
32251;BME280;41295;48.518;9.206;2023-09-08T04:36:16;97446.75;;;17.60;65.02
32251;BME280;41295;48.518;9.206;2023-09-08T04:38:19;97439.16;;;17.55;65.04
32251;BME280;41295;48.518;9.206;2023-09-08T04:40:21;97446.53;;;17.50;65.31
32251;BME280;41295;48.518;9.206;2023-09-08T04:42:24;97450.94;;;17.50;65.18
32251;BME280;41295;48.518;9.206;2023-09-08T04:44:28;97451.78;;;17.50;65.24
32251;BME280;41295;48.518;9.206;2023-09-08T04:46:31;97451.88;;;17.49;65.19
32251;BME280;41295;48.518;9.206;2023-09-08T04:48:34;97445.75;;;17.48;64.86
32251;BME280;41295;48.518;9.206;2023-09-08T04:50:40;97458.19;;;17.46;64.68
32251;BME280;41295;48.518;9.206;2023-09-08T04:52:43;97453.03;;;17.45;64.79
32251;BME280;41295;48.518;9.206;2023-09-08T04:54:46;97461.78;;;17.45;65.12
32251;BME280;41295;48.518;9.206;2023-09-08T04:56:48;97464.53;;;17.43;65.58
32251;BME280;41295;48.518;9.206;2023-09-08T04:58:52;97454.16;;;17.40;66.07
32251;BME280;41295;48.518;9.206;2023-09-08T05:00:57;97461.22;;;17.40;66.12
32251;BME280;41295;48.518;9.206;2023-09-08T05:03:00;97452.66;;;17.36;66.19
32251;BME280;41295;48.518;9.206;2023-09-08T05:05:03;97452.47;;;17.39;66.21
32251;BME280;41295;48.518;9.206;2023-09-08T05:07:06;97456.88;;;17.39;66.05
32251;BME280;41295;48.518;9.206;2023-09-08T05:09:09;97450.03;;;17.36;66.52
32251;BME280;41295;48.518;9.206;2023-09-08T05:11:12;97448.16;;;17.38;66.00
32251;BME280;41295;48.518;9.206;2023-09-08T05:13:16;97455.19;;;17.38;65.90
32251;BME280;41295;48.518;9.206;2023-09-08T05:15:31;97452.66;;;17.36;65.68
32251;BME280;41295;48.518;9.206;2023-09-08T05:17:37;97454.44;;;17.36;65.99
32251;BME280;41295;48.518;9.206;2023-09-08T05:19:40;97454.53;;;17.34;65.95
32251;BME280;41295;48.518;9.206;2023-09-08T05:21:43;97456.31;;;17.34;65.99
32251;BME280;41295;48.518;9.206;2023-09-08T05:23:45;97462.66;;;17.31;66.44
32251;BME280;41295;48.518;9.206;2023-09-08T05:25:48;97463.41;;;17.33;66.57
32251;BME280;41295;48.518;9.206;2023-09-08T05:27:51;97462.44;;;17.34;66.97
32251;BME280;41295;48.518;9.206;2023-09-08T05:29:54;97466.75;;;17.35;67.10
32251;BME280;41295;48.518;9.206;2023-09-08T05:31:56;97467.63;;;17.36;67.42
32251;BME280;41295;48.518;9.206;2023-09-08T05:34:00;97465.75;;;17.38;67.54
32251;BME280;41295;48.518;9.206;2023-09-08T05:36:04;97470.06;;;17.39;67.64
32251;BME280;41295;48.518;9.206;2023-09-08T05:38:07;97468.28;;;17.39;67.68
32251;BME280;41295;48.518;9.206;2023-09-08T05:40:09;97461.97;;;17.42;68.06
32251;BME280;41295;48.518;9.206;2023-09-08T05:42:12;97470.63;;;17.44;68.40
32251;BME280;41295;48.518;9.206;2023-09-08T05:44:15;97472.22;;;17.47;68.48
32251;BME280;41295;48.518;9.206;2023-09-08T05:46:17;97469.50;;;17.48;68.61
32251;BME280;41295;48.518;9.206;2023-09-08T05:48:20;97476.28;;;17.52;68.51
32251;BME280;41295;48.518;9.206;2023-09-08T05:50:24;97477.84;;;17.55;68.28
32251;BME280;41295;48.518;9.206;2023-09-08T05:52:27;97477.75;;;17.57;68.37
32251;BME280;41295;48.518;9.206;2023-09-08T05:54:30;97479.34;;;17.59;68.41
32251;BME280;41295;48.518;9.206;2023-09-08T05:56:33;97473.13;;;17.60;68.65
32251;BME280;41295;48.518;9.206;2023-09-08T05:58:36;97478.22;;;17.63;68.63
32251;BME280;41295;48.518;9.206;2023-09-08T06:00:38;97479.81;;;17.66;68.74
32251;BME280;41295;48.518;9.206;2023-09-08T06:02:41;97480.56;;;17.68;69.11
32251;BME280;41295;48.518;9.206;2023-09-08T06:04:44;97475.19;;;17.70;69.01
32251;BME280;41295;48.518;9.206;2023-09-08T06:06:48;97477.63;;;17.73;69.49
32251;BME280;41295;48.518;9.206;2023-09-08T06:08:51;97483.53;;;17.76;69.92
32251;BME280;41295;48.518;9.206;2023-09-08T06:10:52;97471.13;;;17.78;69.93
32251;BME280;41295;48.518;9.206;2023-09-08T06:12:55;97471.66;;;17.84;70.08
32251;BME280;41295;48.518;9.206;2023-09-08T06:14:58;97473.16;;;17.88;70.36
32251;BME280;41295;48.518;9.206;2023-09-08T06:17:01;97472.84;;;17.92;70.53
32251;BME280;41295;48.518;9.206;2023-09-08T06:19:04;97470.00;;;17.96;70.49
32251;BME280;41295;48.518;9.206;2023-09-08T06:21:07;97471.50;;;18.00;70.55
32251;BME280;41295;48.518;9.206;2023-09-08T06:23:11;97473.94;;;18.03;70.59
32251;BME280;41295;48.518;9.206;2023-09-08T06:25:14;97474.59;;;18.07;70.50
32251;BME280;41295;48.518;9.206;2023-09-08T06:27:17;97477.06;;;18.10;70.32
32251;BME280;41295;48.518;9.206;2023-09-08T06:29:20;97474.22;;;18.13;70.39
32251;BME280;41295;48.518;9.206;2023-09-08T06:31:23;97473.28;;;18.14;70.13
32251;BME280;41295;48.518;9.206;2023-09-08T06:33:26;97468.00;;;18.14;70.09
32251;BME280;41295;48.518;9.206;2023-09-08T06:35:30;97473.28;;;18.14;70.07
32251;BME280;41295;48.518;9.206;2023-09-08T06:37:35;97474.88;;;18.17;70.28
32251;BME280;41295;48.518;9.206;2023-09-08T06:39:39;97471.19;;;18.19;70.22
32251;BME280;41295;48.518;9.206;2023-09-08T06:41:42;97466.66;;;18.21;70.07
32251;BME280;41295;48.518;9.206;2023-09-08T06:43:45;97472.69;;;18.23;69.93
32251;BME280;41295;48.518;9.206;2023-09-08T06:45:48;97470.78;;;18.25;69.70
32251;BME280;41295;48.518;9.206;2023-09-08T06:47:51;97474.19;;;18.27;69.86
32251;BME280;41295;48.518;9.206;2023-09-08T06:49:57;97468.69;;;18.31;69.80
32251;BME280;41295;48.518;9.206;2023-09-08T06:51:59;97479.03;;;18.34;70.02
32251;BME280;41295;48.518;9.206;2023-09-08T06:54:02;97476.28;;;18.35;70.00
32251;BME280;41295;48.518;9.206;2023-09-08T06:56:07;97475.25;;;18.38;70.09
32251;BME280;41295;48.518;9.206;2023-09-08T06:58:10;97473.25;;;18.42;70.13
32251;BME280;41295;48.518;9.206;2023-09-08T07:00:13;97472.09;;;18.46;70.09
32251;BME280;41295;48.518;9.206;2023-09-08T07:02:19;97476.97;;;18.52;70.11
32251;BME280;41295;48.518;9.206;2023-09-08T07:04:22;97479.28;;;18.57;69.94
32251;BME280;41295;48.518;9.206;2023-09-08T07:06:25;97472.88;;;18.61;69.92
32251;BME280;41295;48.518;9.206;2023-09-08T07:08:27;97480.56;;;18.64;70.19
32251;BME280;41295;48.518;9.206;2023-09-08T07:10:31;97473.19;;;18.69;70.33
32251;BME280;41295;48.518;9.206;2023-09-08T07:12:35;97477.31;;;18.73;70.50
32251;BME280;41295;48.518;9.206;2023-09-08T07:14:38;97472.66;;;18.77;70.77
32251;BME280;41295;48.518;9.206;2023-09-08T07:16:41;97467.16;;;18.80;71.00
32251;BME280;41295;48.518;9.206;2023-09-08T07:18:44;97472.22;;;18.83;71.15
32251;BME280;41295;48.518;9.206;2023-09-08T07:20:47;97472.97;;;18.85;71.30
32251;BME280;41295;48.518;9.206;2023-09-08T07:22:50;97465.78;;;18.87;71.23
32251;BME280;41295;48.518;9.206;2023-09-08T07:24:53;97465.69;;;18.89;71.58
32251;BME280;41295;48.518;9.206;2023-09-08T07:26:55;97469.19;;;18.90;71.80
32251;BME280;41295;48.518;9.206;2023-09-08T07:28:59;97464.75;;;18.90;72.28
32251;BME280;41295;48.518;9.206;2023-09-08T07:31:03;97466.44;;;18.91;72.36
32251;BME280;41295;48.518;9.206;2023-09-08T07:33:06;97462.81;;;18.92;72.26
32251;BME280;41295;48.518;9.206;2023-09-08T07:35:09;97455.66;;;18.94;71.95
32251;BME280;41295;48.518;9.206;2023-09-08T07:37:16;97459.88;;;18.97;71.92
32251;BME280;41295;48.518;9.206;2023-09-08T07:39:18;97461.44;;;18.99;71.74
32251;BME280;41295;48.518;9.206;2023-09-08T07:41:21;97461.34;;;19.01;71.79
32251;BME280;41295;48.518;9.206;2023-09-08T07:43:23;97466.44;;;19.04;71.94
32251;BME280;41295;48.518;9.206;2023-09-08T07:45:27;97460.06;;;19.07;71.83
32251;BME280;41295;48.518;9.206;2023-09-08T07:47:29;97454.69;;;19.08;71.95
32251;BME280;41295;48.518;9.206;2023-09-08T07:49:32;97457.06;;;19.13;72.09
32251;BME280;41295;48.518;9.206;2023-09-08T07:51:35;97465.63;;;19.17;72.18
32251;BME280;41295;48.518;9.206;2023-09-08T07:53:37;97466.25;;;19.20;72.45
32251;BME280;41295;48.518;9.206;2023-09-08T07:55:40;97464.34;;;19.22;72.45
32251;BME280;41295;48.518;9.206;2023-09-08T07:57:43;97468.56;;;19.25;72.48
32251;BME280;41295;48.518;9.206;2023-09-08T07:59:47;97469.94;;;19.31;72.24
32251;BME280;41295;48.518;9.206;2023-09-08T08:01:51;97469.69;;;19.34;71.97
32251;BME280;41295;48.518;9.206;2023-09-08T08:03:54;97464.19;;;19.37;71.97
32251;BME280;41295;48.518;9.206;2023-09-08T08:05:57;97456.06;;;19.40;71.88
32251;BME280;41295;48.518;9.206;2023-09-08T08:08:00;97463.03;;;19.41;71.69
32251;BME280;41295;48.518;9.206;2023-09-08T08:10:03;97462.69;;;19.46;71.71
32251;BME280;41295;48.518;9.206;2023-09-08T08:12:14;97466.94;;;19.49;71.52
32251;BME280;41295;48.518;9.206;2023-09-08T08:14:16;97456.97;;;19.52;71.43
32251;BME280;41295;48.518;9.206;2023-09-08T08:16:19;97457.72;;;19.54;71.31
32251;BME280;41295;48.518;9.206;2023-09-08T08:18:24;97460.13;;;19.57;71.38
32251;BME280;41295;48.518;9.206;2023-09-08T08:20:26;97451.84;;;19.62;71.27
32251;BME280;41295;48.518;9.206;2023-09-08T08:22:29;97458.75;;;19.65;71.22
32251;BME280;41295;48.518;9.206;2023-09-08T08:24:31;97453.22;;;19.68;71.27
32251;BME280;41295;48.518;9.206;2023-09-08T08:26:34;97455.63;;;19.71;71.07
32251;BME280;41295;48.518;9.206;2023-09-08T08:28:37;97454.59;;;19.74;71.22
32251;BME280;41295;48.518;9.206;2023-09-08T08:30:40;97456.13;;;19.76;70.92
32251;BME280;41295;48.518;9.206;2023-09-08T08:32:43;97445.47;;;19.78;70.85
32251;BME280;41295;48.518;9.206;2023-09-08T08:34:48;97451.38;;;19.81;71.00
32251;BME280;41295;48.518;9.206;2023-09-08T08:36:52;97447.66;;;19.84;70.80
32251;BME280;41295;48.518;9.206;2023-09-08T08:38:55;97451.03;;;19.86;70.72
32251;BME280;41295;48.518;9.206;2023-09-08T08:41:02;97448.28;;;19.88;70.66
32251;BME280;41295;48.518;9.206;2023-09-08T08:43:05;97450.81;;;19.89;70.62
32251;BME280;41295;48.518;9.206;2023-09-08T08:45:08;97450.38;;;19.95;70.58
32251;BME280;41295;48.518;9.206;2023-09-08T08:47:13;97442.31;;;19.97;70.81
32251;BME280;41295;48.518;9.206;2023-09-08T08:49:17;97445.69;;;19.99;70.75
32251;BME280;41295;48.518;9.206;2023-09-08T08:51:23;97445.47;;;20.02;71.23
32251;BME280;41295;48.518;9.206;2023-09-08T08:53:27;97439.97;;;20.05;71.51
32251;BME280;41295;48.518;9.206;2023-09-08T08:55:31;97443.34;;;20.07;71.86
32251;BME280;41295;48.518;9.206;2023-09-08T08:57:34;97441.31;;;20.11;72.15
32251;BME280;41295;48.518;9.206;2023-09-08T08:59:38;97437.69;;;20.12;72.32
32251;BME280;41295;48.518;9.206;2023-09-08T09:01:42;97435.66;;;20.16;72.30
32251;BME280;41295;48.518;9.206;2023-09-08T09:06:15;97440.28;;;20.25;72.15
32251;BME280;41295;48.518;9.206;2023-09-08T09:08:19;97441.03;;;20.27;72.17
32251;BME280;41295;48.518;9.206;2023-09-08T09:10:23;97441.63;;;20.31;72.09
32251;BME280;41295;48.518;9.206;2023-09-08T09:12:26;97442.38;;;20.33;72.38
32251;BME280;41295;48.518;9.206;2023-09-08T09:14:28;97443.94;;;20.36;72.11
32251;BME280;41295;48.518;9.206;2023-09-08T09:16:39;97443.69;;;20.39;72.06
32251;BME280;41295;48.518;9.206;2023-09-08T09:18:54;97440.81;;;20.42;72.01
32251;BME280;41295;48.518;9.206;2023-09-08T09:23:28;97450.22;;;20.46;72.01
32251;BME280;41295;48.518;9.206;2023-09-08T09:25:31;97443.13;;;20.47;71.93
32251;BME280;41295;48.518;9.206;2023-09-08T09:27:34;97445.53;;;20.50;71.98
32251;BME280;41295;48.518;9.206;2023-09-08T09:29:44;97441.69;;;20.54;71.92
32251;BME280;41295;48.518;9.206;2023-09-08T09:32:04;97443.38;;;20.55;71.95
32251;BME280;41295;48.518;9.206;2023-09-08T09:34:07;97444.84;;;20.59;71.86
32251;BME280;41295;48.518;9.206;2023-09-08T09:36:20;97448.22;;;20.61;71.36
32251;BME280;41295;48.518;9.206;2023-09-08T09:38:26;97446.28;;;20.63;71.34
32251;BME280;41295;48.518;9.206;2023-09-08T09:40:29;97443.53;;;20.65;71.40
32251;BME280;41295;48.518;9.206;2023-09-08T09:42:31;97438.09;;;20.66;71.27
32251;BME280;41295;48.518;9.206;2023-09-08T09:44:34;97439.66;;;20.69;71.47
32251;BME280;41295;48.518;9.206;2023-09-08T09:46:37;97441.13;;;20.73;71.42
32251;BME280;41295;48.518;9.206;2023-09-08T09:48:42;97442.47;;;20.79;71.33
32251;BME280;41295;48.518;9.206;2023-09-08T09:50:45;97439.69;;;20.81;71.23
32251;BME280;41295;48.518;9.206;2023-09-08T09:52:48;97439.94;;;20.89;70.99
32251;BME280;41295;48.518;9.206;2023-09-08T09:54:52;97438.13;;;20.89;70.61
32251;BME280;41295;48.518;9.206;2023-09-08T09:59:04;97436.59;;;20.98;70.60
32251;BME280;41295;48.518;9.206;2023-09-08T10:01:07;97438.06;;;21.02;70.51
32251;BME280;41295;48.518;9.206;2023-09-08T10:03:13;97438.53;;;21.08;70.29
32251;BME280;41295;48.518;9.206;2023-09-08T10:05:18;97434.69;;;21.12;69.95
32251;BME280;41295;48.518;9.206;2023-09-08T10:07:22;97427.44;;;21.14;69.88
32251;BME280;41295;48.518;9.206;2023-09-08T10:09:26;97434.41;;;21.26;69.88
32251;BME280;41295;48.518;9.206;2023-09-08T10:11:29;97424.91;;;21.24;69.73
32251;BME280;41295;48.518;9.206;2023-09-08T10:13:39;97423.00;;;21.26;69.63
32251;BME280;41295;48.518;9.206;2023-09-08T10:15:46;97422.75;;;21.29;69.66
32251;BME280;41295;48.518;9.206;2023-09-08T10:17:52;97413.59;;;21.33;69.65
32251;BME280;41295;48.518;9.206;2023-09-08T10:19:57;97424.06;;;21.35;69.72
32251;BME280;41295;48.518;9.206;2023-09-08T10:22:42;97416.94;;;21.47;69.75
32251;BME280;41295;48.518;9.206;2023-09-08T10:24:46;97414.00;;;21.50;69.24
32251;BME280;41295;48.518;9.206;2023-09-08T10:26:57;97410.75;;;21.58;68.91
32251;BME280;41295;48.518;9.206;2023-09-08T10:29:02;97417.59;;;21.60;68.82
32251;BME280;41295;48.518;9.206;2023-09-08T10:31:06;97414.47;;;21.67;68.82
32251;BME280;41295;48.518;9.206;2023-09-08T10:33:13;97404.19;;;21.73;68.46
32251;BME280;41295;48.518;9.206;2023-09-08T10:35:18;97411.75;;;21.78;68.36
32251;BME280;41295;48.518;9.206;2023-09-08T10:37:22;97408.53;;;21.86;68.53
32251;BME280;41295;48.518;9.206;2023-09-08T10:39:29;97405.97;;;21.96;68.02
32251;BME280;41295;48.518;9.206;2023-09-08T10:41:33;97406.16;;;22.04;68.21
32251;BME280;41295;48.518;9.206;2023-09-08T10:43:37;97403.97;;;22.09;68.09
32251;BME280;41295;48.518;9.206;2023-09-08T10:45:39;97404.56;;;22.13;67.76
32251;BME280;41295;48.518;9.206;2023-09-08T10:47:56;97403.84;;;22.11;67.77
32251;BME280;41295;48.518;9.206;2023-09-08T10:49:59;97400.34;;;22.10;67.58
32251;BME280;41295;48.518;9.206;2023-09-08T10:52:07;97406.38;;;22.13;67.80
32251;BME280;41295;48.518;9.206;2023-09-08T10:54:10;97407.94;;;22.15;68.20
32251;BME280;41295;48.518;9.206;2023-09-08T10:56:14;97397.50;;;22.23;67.51
32251;BME280;41295;48.518;9.206;2023-09-08T10:58:19;97400.28;;;22.22;67.19
32251;BME280;41295;48.518;9.206;2023-09-08T11:00:22;97396.78;;;22.21;67.46
32251;BME280;41295;48.518;9.206;2023-09-08T11:02:35;97393.19;;;22.22;67.42
32251;BME280;41295;48.518;9.206;2023-09-08T11:04:39;97401.00;;;22.24;67.05
32251;BME280;41295;48.518;9.206;2023-09-08T11:06:43;97394.56;;;22.27;66.47
32251;BME280;41295;48.518;9.206;2023-09-08T11:08:46;97401.31;;;22.31;66.38